Time;durP1;ratioP1;P1;durP2;ratioP2;P2;SDS_P1;SDS_P2;PMS_P1;PMS_P2;Temp;Humidity;BMP_temperature;BMP_pressure;BME280_temperature;BME280_humidity;BME280_pressure;Samples;Min_cycle;Max_cycle;Signal;HPM_P1;HPM_P2
2021/04/11 00:00:42;;;;;;;3.17;2.35;;;13.80;47.30;;;;;;5033561;28;20049;-64
2021/04/11 00:03:27;;;;;;;2.50;2.30;;;13.80;47.50;;;;;;5042657;28;20029;-64
2021/04/11 00:05:53;;;;;;;4.28;1.95;;;13.80;47.50;;;;;;5048486;28;20505;-64
2021/04/11 00:08:22;;;;;;;4.03;2.55;;;13.70;47.10;;;;;;5044696;28;20025;-64
2021/04/11 00:10:52;;;;;;;4.05;2.50;;;13.70;47.30;;;;;;5042786;28;20041;-64
2021/04/11 00:13:28;;;;;;;3.83;2.22;;;13.70;47.20;;;;;;5047997;28;20122;-64
2021/04/11 00:15:55;;;;;;;2.42;2.15;;;13.70;47.20;;;;;;5048373;28;20561;-64
2021/04/11 00:18:21;;;;;;;3.53;2.45;;;13.60;47.10;;;;;;5044219;28;20080;-64
2021/04/11 00:20:46;;;;;;;2.72;2.28;;;13.50;47.30;;;;;;5040992;28;20148;-63
2021/04/11 00:23:15;;;;;;;2.85;2.20;;;13.50;47.50;;;;;;5037763;28;20508;-63
2021/04/11 00:25:42;;;;;;;2.05;1.85;;;13.50;47.70;;;;;;5037851;28;20040;-64
2021/04/11 00:28:10;;;;;;;3.67;2.30;;;13.40;47.80;;;;;;5042404;28;20056;-63
2021/04/11 00:30:38;;;;;;;2.60;2.10;;;13.40;47.90;;;;;;5044632;28;20561;-64
2021/04/11 00:33:08;;;;;;;3.13;2.20;;;13.40;48.30;;;;;;5060626;28;20033;-64
2021/04/11 00:35:34;;;;;;;4.32;2.55;;;13.30;48.00;;;;;;5044935;28;20406;-64
2021/04/11 00:38:05;;;;;;;2.55;2.03;;;13.30;47.90;;;;;;5047664;28;20039;-63
2021/04/11 00:40:38;;;;;;;3.28;2.25;;;13.20;47.90;;;;;;5041381;28;20112;-63
2021/04/11 00:43:10;;;;;;;2.33;2.13;;;13.10;47.90;;;;;;5044644;28;20052;-63
2021/04/11 00:45:45;;;;;;;2.10;1.90;;;13.10;48.30;;;;;;5045979;28;20029;-64
2021/04/11 00:48:12;;;;;;;3.05;2.13;;;13.00;48.70;;;;;;5047645;28;20521;-64
2021/04/11 00:50:50;;;;;;;2.13;1.92;;;13.00;48.50;;;;;;5044980;28;20076;-63
2021/04/11 00:53:16;;;;;;;2.97;2.40;;;12.90;48.40;;;;;;5046610;28;20032;-63
2021/04/11 00:55:41;;;;;;;2.60;2.17;;;12.80;48.40;;;;;;5043774;28;20551;-64
2021/04/11 00:58:09;;;;;;;3.53;2.35;;;12.70;48.50;;;;;;5045744;28;20108;-64
2021/04/11 01:00:36;;;;;;;2.67;2.20;;;12.70;48.70;;;;;;5042917;28;20501;-64
2021/04/11 01:03:08;;;;;;;2.35;2.03;;;12.60;48.90;;;;;;5042692;28;20409;-62
2021/04/11 01:05:41;;;;;;;3.47;2.40;;;12.50;49.00;;;;;;5043032;28;20021;-64
2021/04/11 01:08:11;;;;;;;2.42;2.20;;;12.40;48.90;;;;;;5044368;28;20036;-64
2021/04/11 01:10:43;;;;;;;2.22;1.95;;;12.30;49.50;;;;;;5037160;28;20033;-62
2021/04/11 01:13:11;;;;;;;2.40;2.17;;;12.30;49.20;;;;;;5045571;28;20056;-63
2021/04/11 01:15:39;;;;;;;3.20;2.40;;;12.20;49.40;;;;;;5043622;28;20037;-63
2021/04/11 01:18:05;;;;;;;3.08;2.17;;;12.20;49.60;;;;;;5040278;28;20045;-63
2021/04/11 01:20:33;;;;;;;3.08;2.30;;;12.10;49.70;;;;;;5044503;28;20087;-63
2021/04/11 01:23:18;;;;;;;2.53;2.00;;;12.10;49.60;;;;;;5046992;28;20033;-64
2021/04/11 01:25:45;;;;;;;;;;;12.00;49.90;;;;;;5045777;28;20033;-63
2021/04/11 01:28:35;;;;;;;2.92;2.25;;;12.00;49.50;;;;;;5043761;28;19916;-64
2021/04/11 01:31:05;;;;;;;4.55;2.40;;;11.90;49.80;;;;;;5041786;28;20047;-63
2021/04/11 01:33:35;;;;;;;4.38;2.50;;;11.90;49.90;;;;;;5038981;28;20029;-64
2021/04/11 01:36:03;;;;;;;3.03;2.67;;;11.80;50.10;;;;;;5047675;28;20039;-64
2021/04/11 01:38:29;;;;;;;3.72;2.70;;;11.70;50.10;;;;;;5045065;28;20524;-63
2021/04/11 01:41:10;;;;;;;4.45;3.00;;;11.60;50.00;;;;;;5045231;28;20390;-62
2021/04/11 01:43:39;;;;;;;4.38;3.20;;;11.50;50.50;;;;;;5041497;28;20046;-63
2021/04/11 01:46:11;;;;;;;4.30;3.45;;;11.50;50.60;;;;;;5044235;28;20028;-64
2021/04/11 01:48:38;;;;;;;4.70;3.47;;;11.40;50.90;;;;;;5038081;28;20115;-61
2021/04/11 01:51:08;;;;;;;5.68;3.70;;;11.40;50.90;;;;;;5046010;28;20028;-63
2021/04/11 01:53:34;;;;;;;4.22;3.50;;;11.30;51.00;;;;;;5046634;28;20036;-63
2021/04/11 01:56:02;;;;;;;6.90;3.63;;;11.30;51.00;;;;;;5043233;28;20025;-63
2021/04/11 01:58:28;;;;;;;4.07;3.60;;;11.20;51.00;;;;;;5044036;28;20029;-63
2021/04/11 02:01:17;;;;;;;4.60;3.50;;;11.20;51.30;;;;;;5045271;28;20033;-62
2021/04/11 02:03:45;;;;;;;3.38;3.05;;;11.10;52.00;;;;;;5046475;28;20745;-63
2021/04/11 02:06:14;;;;;;;3.67;3.30;;;11.10;51.50;;;;;;5047004;28;20033;-64
2021/04/11 02:08:45;;;;;;;3.15;2.85;;;11.10;51.70;;;;;;5044971;28;20033;-63
2021/04/11 02:11:11;;;;;;;5.18;2.88;;;11.10;52.00;;;;;;5039661;28;20082;-63
2021/04/11 02:13:41;;;;;;;4.78;2.92;;;11.00;51.70;;;;;;5043884;28;20293;-63
2021/04/11 02:16:11;;;;;;;4.28;2.85;;;11.00;52.00;;;;;;5042051;28;20033;-62
2021/04/11 02:18:37;;;;;;;3.58;2.80;;;10.90;52.00;;;;;;5041048;28;20136;-64
2021/04/11 02:21:07;;;;;;;3.33;2.63;;;10.90;52.20;;;;;;5040499;28;20557;-63
2021/04/11 02:23:35;;;;;;;4.05;2.72;;;10.90;52.20;;;;;;5045960;28;20025;-63
2021/04/11 02:26:01;;;;;;;3.33;2.85;;;10.90;53.00;;;;;;5044729;28;20033;-63
2021/04/11 02:28:30;;;;;;;2.55;2.35;;;10.90;52.50;;;;;;5043857;28;20059;-63
2021/04/11 02:31:17;;;;;;;5.70;2.97;;;10.80;52.60;;;;;;5043017;28;20087;-63
2021/04/11 02:34:19;;;;;;;3.55;2.85;;;10.80;52.60;;;;;;5037914;28;20082;-64
2021/04/11 02:36:48;;;;;;;5.60;3.10;;;10.80;53.50;;;;;;5038195;28;20029;-61
2021/04/11 02:39:22;;;;;;;3.88;3.13;;;10.70;52.70;;;;;;5035555;28;20037;-63
2021/04/11 02:41:51;;;;;;;4.70;3.17;;;10.70;53.10;;;;;;5045241;28;20068;-63
2021/04/11 02:44:17;;;;;;;3.78;2.92;;;10.70;52.90;;;;;;5044002;28;20054;-64
2021/04/11 02:46:46;;;;;;;3.30;2.95;;;10.70;53.00;;;;;;5042528;28;20692;-63
2021/04/11 02:49:15;;;;;;;3.40;2.63;;;10.70;53.30;;;;;;5038134;28;20037;-63
2021/04/11 02:51:42;;;;;;;3.40;2.70;;;10.70;53.50;;;;;;5043438;28;20032;-63
2021/04/11 02:54:14;;;;;;;2.63;2.42;;;10.70;53.20;;;;;;5045188;28;20078;-63
2021/04/11 02:56:43;;;;;;;4.35;2.30;;;10.70;53.30;;;;;;5045046;28;20041;-64
2021/04/11 02:59:16;;;;;;;3.25;2.63;;;10.70;53.50;;;;;;5043536;28;20040;-63
2021/04/11 03:01:47;;;;;;;2.60;2.40;;;10.70;53.30;;;;;;5041779;28;20033;-63
2021/04/11 03:04:19;;;;;;;2.60;2.40;;;10.70;53.40;;;;;;5040587;28;20627;-63
2021/04/11 03:06:51;;;;;;;2.88;2.25;;;10.70;53.80;;;;;;5043026;28;20504;-64
2021/04/11 03:09:22;;;;;;;4.40;2.30;;;10.70;53.60;;;;;;5046600;28;20112;-63
2021/04/11 03:11:52;;;;;;;2.35;2.15;;;10.70;53.80;;;;;;5031800;28;20663;-64
2021/04/11 03:14:27;;;;;;;2.25;2.05;;;10.80;53.90;;;;;;5039433;28;20033;-64
2021/04/11 03:16:55;;;;;;;;;;;10.80;53.90;;;;;;5045108;28;20497;-63
2021/04/11 03:19:44;;;;;;;3.78;2.08;;;10.80;53.80;;;;;;5041368;28;19927;-63
2021/04/11 03:22:14;;;;;;;2.60;2.35;;;10.80;53.50;;;;;;5043319;28;20520;-64
2021/04/11 03:24:40;;;;;;;3.17;2.33;;;10.80;53.40;;;;;;5038491;28;20115;-63
2021/04/11 03:27:24;;;;;;;3.55;2.35;;;10.80;53.50;;;;;;5043501;28;20183;-63
2021/04/11 03:30:25;;;;;;;2.80;2.35;;;10.80;54.50;;;;;;5036113;28;20033;-64
2021/04/11 03:32:57;;;;;;;3.25;2.20;;;10.80;54.60;;;;;;5045225;28;20033;-63
2021/04/11 03:35:28;;;;;;;2.97;2.30;;;10.70;53.80;;;;;;5044520;28;20033;-63
2021/04/11 03:38:00;;;;;;;3.95;2.40;;;10.70;53.90;;;;;;5048197;28;20057;-63
2021/04/11 03:40:28;;;;;;;4.80;2.50;;;10.70;54.40;;;;;;5048557;28;20018;-63
2021/04/11 03:42:59;;;;;;;3.00;2.17;;;10.70;54.20;;;;;;5045227;28;20497;-64
2021/04/11 03:45:28;;;;;;;3.95;2.65;;;10.70;54.40;;;;;;5049031;28;20032;-63
2021/04/11 03:48:00;;;;;;;3.35;2.40;;;10.70;54.40;;;;;;5041467;28;20052;-63
2021/04/11 03:50:30;;;;;;;2.60;2.40;;;10.70;54.50;;;;;;5049641;28;20112;-63
2021/04/11 03:53:04;;;;;;;3.97;2.35;;;10.70;54.80;;;;;;5044517;28;20036;-64
2021/04/11 03:55:35;;;;;;;3.97;2.63;;;10.80;54.80;;;;;;5048009;28;20116;-64
2021/04/11 03:58:07;;;;;;;4.00;2.50;;;10.80;54.70;;;;;;5048142;28;20057;-62
2021/04/11 04:00:38;;;;;;;3.40;2.20;;;10.80;54.80;;;;;;5043303;28;20029;-64
2021/04/11 04:03:15;;;;;;;2.95;2.42;;;10.80;54.70;;;;;;5064305;28;20041;-64
2021/04/11 04:05:43;;;;;;;2.88;2.42;;;10.80;54.70;;;;;;5044572;28;20025;-64
2021/04/11 04:08:09;;;;;;;2.50;2.30;;;10.80;54.40;;;;;;5041725;28;20505;-63
2021/04/11 04:10:45;;;;;;;2.58;2.38;;;10.80;54.50;;;;;;5040571;28;20026;-63
2021/04/11 04:13:22;;;;;;;2.42;2.17;;;10.80;55.10;;;;;;5046766;28;20025;-63
2021/04/11 04:16:09;;;;;;;2.38;2.17;;;10.80;55.20;;;;;;5046974;28;20040;-63
2021/04/11 04:18:49;;;;;;;2.67;2.40;;;10.80;55.10;;;;;;5042983;28;20029;-63
2021/04/11 04:21:40;;;;;;;3.03;2.22;;;10.80;54.90;;;;;;5043923;28;20068;-62
2021/04/11 04:24:19;;;;;;;2.95;2.33;;;10.80;54.80;;;;;;5042940;28;20037;-62
2021/04/11 04:26:51;;;;;;;5.43;2.15;;;10.90;55.60;;;;;;5044366;28;20037;-63
2021/04/11 04:29:40;;;;;;;2.67;2.30;;;10.90;55.20;;;;;;5044227;28;20033;-63
2021/04/11 04:32:08;;;;;;;2.58;2.20;;;10.90;55.80;;;;;;5044838;28;20071;-63
2021/04/11 04:35:04;;;;;;;2.97;2.15;;;10.90;55.00;;;;;;5046004;28;20029;-64
2021/04/11 04:38:30;;;;;;;3.78;2.75;;;10.90;55.20;;;;;;5035141;28;20033;-64
2021/04/11 04:41:21;;;;;;;4.32;2.80;;;10.90;55.40;;;;;;4986211;28;20034;-63
2021/04/11 04:43:58;;;;;;;3.30;2.80;;;10.90;55.00;;;;;;4988033;28;20071;-63
2021/04/11 04:46:49;;;;;;;2.92;2.33;;;10.90;55.10;;;;;;5025990;28;20029;-62
2021/04/11 04:49:33;;;;;;;3.15;2.45;;;11.00;55.20;;;;;;5042021;28;20404;-63
2021/04/11 04:52:13;;;;;;;2.63;2.22;;;11.00;54.90;;;;;;5044078;28;20116;-63
2021/04/11 04:54:45;;;;;;;5.22;2.90;;;11.00;54.70;;;;;;5046999;28;20047;-64
2021/04/11 04:57:29;;;;;;;3.67;3.10;;;11.00;54.50;;;;;;5037833;28;20413;-63
2021/04/11 05:00:04;;;;;;;4.88;2.67;;;11.00;54.80;;;;;;5041929;28;20032;-63
2021/04/11 05:02:37;;;;;;;3.17;2.72;;;11.00;54.90;;;;;;5040976;28;20082;-64
2021/04/11 05:05:06;;;;;;;3.85;2.88;;;11.00;54.90;;;;;;5046050;28;20489;-63
2021/04/11 05:07:38;;;;;;;5.03;3.65;;;10.90;54.80;;;;;;5047274;28;20037;-63
2021/04/11 05:10:11;;;;;;;3.22;2.92;;;11.00;55.00;;;;;;5042767;28;20037;-63
2021/04/11 05:12:58;;;;;;;4.03;3.20;;;10.90;54.80;;;;;;5041653;28;20029;-64
2021/04/11 05:15:30;;;;;;;4.15;2.90;;;10.90;55.40;;;;;;5046362;28;20128;-63
2021/04/11 05:18:06;;;;;;;4.05;3.00;;;10.80;55.80;;;;;;5041222;28;20029;-63
2021/04/11 05:20:39;;;;;;;3.38;3.00;;;10.90;55.50;;;;;;5045808;28;20409;-64
2021/04/11 05:23:09;;;;;;;3.05;2.70;;;10.90;55.50;;;;;;5038736;28;20033;-64
2021/04/11 05:25:48;;;;;;;4.43;2.50;;;10.90;55.50;;;;;;5042643;28;20052;-63
2021/04/11 05:28:29;;;;;;;3.13;2.53;;;10.90;55.60;;;;;;5046623;28;20404;-63
2021/04/11 05:31:12;;;;;;;3.97;2.90;;;11.00;55.50;;;;;;5044164;28;20408;-64
2021/04/11 05:33:39;;;;;;;4.40;3.25;;;11.00;55.80;;;;;;5045516;28;20428;-63
2021/04/11 05:36:24;;;;;;;4.10;2.70;;;11.00;55.70;;;;;;5044265;28;20068;-63
2021/04/11 05:38:58;;;;;;;4.05;2.75;;;11.00;56.30;;;;;;5041328;28;20394;-63
2021/04/11 05:41:36;;;;;;;3.72;2.60;;;11.00;56.30;;;;;;5045943;28;20033;-64
2021/04/11 05:44:32;;;;;;;3.42;2.80;;;11.00;57.00;;;;;;5039027;28;20497;-63
2021/04/11 05:47:09;;;;;;;3.80;2.78;;;11.00;56.50;;;;;;5026528;28;20405;-64
2021/04/11 05:49:45;;;;;;;3.83;3.35;;;11.00;56.30;;;;;;5036161;28;20037;-63
2021/04/11 05:52:17;;;;;;;4.15;3.55;;;11.10;56.80;;;;;;5036089;28;20029;-65
2021/04/11 05:54:51;;;;;;;6.30;3.20;;;11.10;56.30;;;;;;5036056;28;20037;-63
2021/04/11 05:57:25;;;;;;;5.30;4.60;;;11.10;56.30;;;;;;5035362;28;20037;-63
2021/04/11 06:00:04;;;;;;;4.72;3.78;;;11.10;56.30;;;;;;5043569;28;20048;-63
2021/04/11 06:02:50;;;;;;;6.45;3.50;;;11.20;56.20;;;;;;5030339;28;20034;-64
2021/04/11 06:05:32;;;;;;;3.78;3.38;;;11.20;56.00;;;;;;5035864;28;20040;-63
2021/04/11 06:08:16;;;;;;;4.13;3.30;;;11.20;56.10;;;;;;5038122;28;20033;-63
2021/04/11 06:10:50;;;;;;;6.40;3.40;;;11.30;56.00;;;;;;5036422;28;20102;-62
2021/04/11 06:13:20;;;;;;;3.72;3.20;;;11.30;55.90;;;;;;5034382;28;20695;-62
2021/04/11 06:16:04;;;;;;;5.82;3.45;;;11.30;55.70;;;;;;5034131;28;20565;-63
2021/04/11 06:18:32;;;;;;;4.03;3.53;;;11.30;56.20;;;;;;5034615;28;20485;-63
2021/04/11 06:21:07;;;;;;;4.03;3.30;;;11.30;55.90;;;;;;5034955;28;20145;-63
2021/04/11 06:23:48;;;;;;;6.32;3.90;;;11.30;56.10;;;;;;5035662;28;20075;-62
2021/04/11 06:26:25;;;;;;;3.78;3.25;;;11.30;56.10;;;;;;5037047;28;20451;-63
2021/04/11 06:29:10;;;;;;;5.05;3.72;;;11.30;56.30;;;;;;5019716;28;20124;-62
2021/04/11 06:31:40;;;;;;;3.77;3.37;;;11.40;56.60;;;;;;5024330;28;20079;-63
2021/04/11 06:34:25;;;;;;;4.78;3.90;;;11.40;56.10;;;;;;5024040;28;20350;-64
2021/04/11 06:37:01;;;;;;;5.78;4.00;;;11.50;56.40;;;;;;5026767;28;20677;-63
2021/04/11 06:39:34;;;;;;;5.05;4.28;;;11.50;56.50;;;;;;5028143;28;21240;-63
2021/04/11 06:42:36;;;;;;;7.03;4.00;;;11.60;56.60;;;;;;5023798;28;20685;-62
2021/04/11 06:45:14;;;;;;;4.65;3.97;;;11.60;57.00;;;;;;5024549;28;20036;-63
2021/04/11 06:48:35;;;;;;;4.82;3.90;;;11.60;56.60;;;;;;5025801;28;20041;-63
2021/04/11 06:51:12;;;;;;;4.15;3.75;;;11.70;57.00;;;;;;4988374;28;20467;-63
2021/04/11 06:53:40;;;;;;;4.72;4.05;;;11.70;56.30;;;;;;5023907;28;20048;-62
2021/04/11 06:56:28;;;;;;;5.35;4.10;;;11.80;56.40;;;;;;5023988;28;22687;-63
2021/04/11 06:59:05;;;;;;;5.07;3.72;;;11.80;56.40;;;;;;5024831;28;20048;-63
2021/04/11 07:01:46;;;;;;;4.30;3.90;;;11.80;56.40;;;;;;5026276;28;20033;-63
2021/04/11 07:04:38;;;;;;;5.13;3.80;;;11.80;57.00;;;;;;5025091;28;20038;-63
2021/04/11 07:07:25;;;;;;;6.63;4.00;;;11.90;56.80;;;;;;5004726;28;20061;-63
2021/04/11 07:10:02;;;;;;;4.57;3.60;;;12.00;56.70;;;;;;5023751;28;20040;-63
2021/04/11 07:12:46;;;;;;;4.82;3.15;;;12.00;56.70;;;;;;5033286;28;20468;-63
2021/04/11 07:15:46;;;;;;;4.72;3.95;;;12.10;56.00;;;;;;5029584;28;20397;-63
2021/04/11 07:18:15;;;;;;;9.07;4.72;;;12.20;56.10;;;;;;4994632;28;20134;-63
2021/04/11 07:20:43;;;;;;;7.53;4.07;;;12.30;56.00;;;;;;5028586;28;20048;-63
2021/04/11 07:23:55;;;;;;;4.80;3.63;;;12.40;56.20;;;;;;5029475;28;20055;-63
2021/04/11 07:26:56;;;;;;;3.90;3.38;;;12.50;56.10;;;;;;5026999;28;20029;-63
2021/04/11 07:29:50;;;;;;;5.25;3.08;;;12.60;56.00;;;;;;5037716;28;20021;-63
2021/04/11 07:32:24;;;;;;;4.53;3.88;;;12.80;55.50;;;;;;5046891;28;20035;-63
2021/04/11 07:34:50;;;;;;;4.80;3.75;;;12.90;55.40;;;;;;5044494;28;20065;-64
2021/04/11 07:37:37;;;;;;;4.65;3.75;;;13.00;55.10;;;;;;5045221;28;20402;-63
2021/04/11 07:40:26;;;;;;;4.03;3.63;;;13.20;55.00;;;;;;5044827;28;20044;-63
2021/04/11 07:43:21;;;;;;;4.00;3.63;;;13.30;54.60;;;;;;5043850;28;20097;-63
2021/04/11 07:45:53;;;;;;;;;;;13.40;54.50;;;;;;5042098;28;20030;-63
2021/04/11 07:48:43;;;;;;;5.75;3.40;;;13.60;54.50;;;;;;5044666;28;20038;-64
2021/04/11 07:51:37;;;;;;;4.25;3.50;;;13.70;54.10;;;;;;5042593;28;20487;-63
2021/04/11 07:54:24;;;;;;;4.40;4.00;;;13.90;54.00;;;;;;5038203;28;20052;-63
2021/04/11 07:57:13;;;;;;;4.07;3.47;;;14.00;53.60;;;;;;5041165;28;20749;-64
2021/04/11 08:00:00;;;;;;;5.93;3.55;;;14.10;53.20;;;;;;5046262;28;20025;-64
2021/04/11 08:02:48;;;;;;;4.28;3.60;;;14.20;53.30;;;;;;5039457;28;20044;-63
2021/04/11 08:05:50;;;;;;;3.35;3.05;;;14.30;52.90;;;;;;5033768;28;20069;-64
2021/04/11 08:08:36;;;;;;;3.28;3.03;;;14.40;53.00;;;;;;5039892;28;20068;-64
2021/04/11 08:11:31;;;;;;;3.63;3.25;;;14.50;53.00;;;;;;5011989;28;20116;-64
2021/04/11 08:17:08;;;;;;;3.83;3.22;;;14.70;52.90;;;;;;6081852;23;20847;-63
2021/04/11 08:19:48;;;;;;;4.03;3.30;;;14.90;52.70;;;;;;5000866;28;20129;-64
2021/04/11 08:22:38;;;;;;;4.63;3.13;;;15.10;52.60;;;;;;5001896;28;20080;-64
2021/04/11 08:25:28;;;;;;;3.30;3.00;;;15.20;52.40;;;;;;5022108;28;20045;-64
2021/04/11 08:28:28;;;;;;;3.30;3.00;;;15.40;52.10;;;;;;4989799;28;20495;-64
2021/04/11 08:31:20;;;;;;;3.70;2.95;;;15.50;52.30;;;;;;4981843;28;20046;-64
2021/04/11 08:34:01;;;;;;;2.97;2.67;;;15.60;51.70;;;;;;4982377;28;20506;-64
2021/04/11 08:37:14;;;;;;;4.15;2.53;;;15.70;51.70;;;;;;4982086;28;20058;-64
2021/04/11 08:40:37;;;;;;;2.65;2.45;;;15.90;51.30;;;;;;4983617;28;20057;-63
2021/04/11 08:43:26;;;;;;;2.45;1.95;;;16.00;51.00;;;;;;4948362;29;20126;-64
2021/04/11 08:46:12;;;;;;;2.38;2.00;;;16.10;50.80;;;;;;4947290;29;20512;-64
2021/04/11 08:48:46;;;;;;;2.88;2.20;;;16.20;50.40;;;;;;4978565;28;20392;-64
2021/04/11 08:51:52;;;;;;;2.33;1.92;;;16.40;50.20;;;;;;4983821;28;20077;-64
2021/04/11 08:54:49;;;;;;;2.15;1.85;;;16.50;49.20;;;;;;4983464;28;20034;-64
2021/04/11 08:57:48;;;;;;;1.90;1.70;;;16.60;49.00;;;;;;4983732;28;20034;-64
2021/04/11 09:00:23;;;;;;;2.75;2.08;;;16.70;49.30;;;;;;5004633;28;20038;-64
2021/04/11 09:03:32;;;;;;;3.03;2.15;;;16.80;49.50;;;;;;4981543;28;20042;-64
2021/04/11 09:06:32;;;;;;;1.80;1.60;;;16.90;48.90;;;;;;4983619;28;20419;-64
2021/04/11 09:09:26;;;;;;;2.67;1.77;;;17.00;48.10;;;;;;4982867;28;20118;-64
2021/04/11 09:12:05;;;;;;;1.67;1.25;;;17.10;47.40;;;;;;4981319;28;20034;-64
2021/04/11 09:14:46;;;;;;;1.60;1.25;;;17.20;47.90;;;;;;4982009;28;20035;-64
2021/04/11 09:17:49;;;;;;;1.45;1.08;;;17.20;47.40;;;;;;4983030;28;20089;-64
2021/04/11 09:20:38;;;;;;;1.15;0.77;;;17.40;47.50;;;;;;4995983;28;20042;-65
2021/04/11 09:23:32;;;;;;;1.83;0.90;;;17.50;47.30;;;;;;4983696;28;20069;-64
2021/04/11 09:26:18;;;;;;;4.05;0.85;;;17.60;46.90;;;;;;5003448;28;20045;-64
2021/04/11 09:28:56;;;;;;;1.02;0.93;;;17.70;46.50;;;;;;4981638;28;20046;-65
2021/04/11 09:31:52;;;;;;;1.13;1.00;;;17.80;46.20;;;;;;4983801;28;20030;-64
2021/04/11 09:34:49;;;;;;;1.85;1.13;;;17.80;45.80;;;;;;4982644;28;20022;-64
2021/04/11 09:37:52;;;;;;;1.98;1.02;;;18.00;45.40;;;;;;4981770;28;20085;-64
2021/04/11 09:40:39;;;;;;;2.47;1.05;;;18.00;44.80;;;;;;4982046;28;20189;-65
2021/04/11 09:43:13;;;;;;;2.53;1.10;;;18.10;44.90;;;;;;4981111;28;20046;-64
2021/04/11 09:46:10;;;;;;;2.75;0.98;;;18.20;44.60;;;;;;4982472;28;20030;-64
2021/04/11 09:49:02;;;;;;;1.80;0.80;;;18.30;44.50;;;;;;4979597;28;20054;-64
2021/04/11 09:51:40;;;;;;;1.33;0.90;;;18.40;43.80;;;;;;4981061;28;20030;-64
2021/04/11 09:54:27;;;;;;;1.20;1.10;;;18.50;43.00;;;;;;4979696;28;20035;-65
2021/04/11 09:57:38;;;;;;;1.95;1.52;;;18.60;43.40;;;;;;4994859;28;20033;-64
2021/04/11 10:00:25;;;;;;;1.27;0.90;;;18.70;43.40;;;;;;4980934;28;20080;-64
2021/04/11 10:03:06;;;;;;;1.58;1.15;;;18.80;43.60;;;;;;4980768;28;20037;-64
2021/04/11 10:05:39;;;;;;;1.48;1.10;;;18.90;42.60;;;;;;4979505;28;20030;-65
2021/04/11 10:08:22;;;;;;;1.63;1.33;;;18.90;43.20;;;;;;4984142;28;20062;-64
2021/04/11 10:11:27;;;;;;;1.75;1.02;;;19.00;43.30;;;;;;4982865;28;20038;-64
2021/04/11 10:14:14;;;;;;;1.08;0.98;;;19.00;42.90;;;;;;4981849;28;20118;-64
2021/04/11 10:17:12;;;;;;;1.10;1.00;;;19.10;42.80;;;;;;4980716;28;20528;-64
2021/04/11 10:20:06;;;;;;;2.05;0.98;;;19.10;42.70;;;;;;4981628;28;20030;-65
2021/04/11 10:22:56;;;;;;;1.08;1.00;;;19.20;42.40;;;;;;4981004;28;20118;-65
2021/04/11 10:25:46;;;;;;;1.23;0.80;;;19.20;42.50;;;;;;4980278;28;20629;-64
2021/04/11 10:28:49;;;;;;;1.02;0.80;;;19.20;42.00;;;;;;4995378;28;20034;-64
2021/04/11 10:31:37;;;;;;;1.00;0.80;;;19.10;42.20;;;;;;4962820;28;20034;-64
2021/04/11 10:34:24;;;;;;;1.02;0.60;;;19.10;42.00;;;;;;4981496;28;20419;-64
2021/04/11 10:36:55;;;;;;;0.90;0.90;;;19.10;41.50;;;;;;4999602;28;20042;-64
2021/04/11 10:39:32;;;;;;;0.80;0.80;;;19.10;41.60;;;;;;4980800;28;20038;-64
2021/04/11 10:42:28;;;;;;;1.00;0.85;;;19.10;41.10;;;;;;4980425;28;20035;-64
2021/04/11 10:45:01;;;;;;;0.80;0.80;;;19.10;40.50;;;;;;4994329;28;20413;-65
2021/04/11 10:47:50;;;;;;;1.13;0.60;;;19.10;41.10;;;;;;4979358;28;20442;-64
2021/04/11 10:50:37;;;;;;;0.45;0.40;;;19.10;41.00;;;;;;4981375;28;20034;-64
2021/04/11 10:53:17;;;;;;;0.70;0.57;;;19.20;40.50;;;;;;4978391;28;20062;-64
2021/04/11 10:56:07;;;;;;;1.35;0.60;;;19.20;40.80;;;;;;4984291;28;20570;-64
2021/04/11 10:58:44;;;;;;;0.80;0.55;;;19.20;40.90;;;;;;4978458;28;20034;-64
2021/04/11 11:01:31;;;;;;;1.05;0.57;;;19.30;40.60;;;;;;4980863;28;20065;-64
2021/04/11 11:04:20;;;;;;;0.80;0.70;;;19.30;40.50;;;;;;4978615;28;20502;-64
2021/04/11 11:07:14;;;;;;;0.75;0.52;;;19.30;40.80;;;;;;4980099;28;20027;-64
2021/04/11 11:10:07;;;;;;;3.08;0.82;;;19.40;40.60;;;;;;4981974;28;20078;-64
2021/04/11 11:13:15;;;;;;;0.90;0.70;;;19.50;40.70;;;;;;4978116;28;20034;-65
2021/04/11 11:16:04;;;;;;;1.23;0.73;;;19.50;40.80;;;;;;4978673;28;20034;-65
2021/04/11 11:18:41;;;;;;;1.17;0.60;;;19.50;40.30;;;;;;4980532;28;20466;-64
2021/04/11 11:21:39;;;;;;;0.60;0.40;;;19.50;40.10;;;;;;4984696;28;20422;-65
2021/04/11 11:24:22;;;;;;;0.60;0.45;;;19.50;39.90;;;;;;4980615;28;20126;-65
2021/04/11 11:27:15;;;;;;;1.35;0.60;;;19.60;40.00;;;;;;4997427;28;20030;-64
2021/04/11 11:30:03;;;;;;;1.08;0.43;;;19.60;39.70;;;;;;4976302;28;20559;-65
2021/04/11 11:32:37;;;;;;;0.55;0.52;;;19.70;39.80;;;;;;4953990;28;20038;-65
2021/04/11 11:35:07;;;;;;;0.60;0.50;;;19.70;39.70;;;;;;4975303;28;20035;-64
2021/04/11 11:37:47;;;;;;;1.58;0.43;;;19.70;39.80;;;;;;4975348;28;20129;-65
2021/04/11 11:40:29;;;;;;;0.30;0.30;;;19.80;39.40;;;;;;4976223;28;20035;-65
2021/04/11 11:43:14;;;;;;;0.75;0.40;;;19.80;39.30;;;;;;4974412;28;20189;-64
2021/04/11 11:45:50;;;;;;;0.50;0.47;;;19.80;39.60;;;;;;4975588;28;20088;-64
2021/04/11 11:48:18;;;;;;;0.68;0.60;;;19.90;39.70;;;;;;4975675;28;20073;-64
2021/04/11 11:50:57;;;;;;;0.50;0.45;;;19.90;39.50;;;;;;4979067;28;20089;-64
2021/04/11 11:53:43;;;;;;;0.40;0.40;;;19.90;38.90;;;;;;4983160;28;20035;-64
2021/04/11 11:56:32;;;;;;;0.50;0.50;;;20.00;39.10;;;;;;4978360;28;20042;-63
2021/04/11 11:59:25;;;;;;;0.85;0.70;;;20.00;39.10;;;;;;4982672;28;20039;-65
2021/04/11 12:02:16;;;;;;;0.60;0.50;;;20.00;39.30;;;;;;4983675;28;20035;-65
2021/04/11 12:04:54;;;;;;;0.73;0.40;;;20.00;38.70;;;;;;4981511;28;20038;-65
2021/04/11 12:07:25;;;;;;;0.77;0.38;;;20.00;38.50;;;;;;4996225;28;20035;-64
2021/04/11 12:10:14;;;;;;;0.50;0.50;;;20.00;38.90;;;;;;4981560;28;20045;-65
2021/04/11 12:13:08;;;;;;;1.50;0.60;;;20.10;38.80;;;;;;4977212;28;20134;-64
2021/04/11 12:15:56;;;;;;;1.33;0.47;;;20.10;39.10;;;;;;5002304;28;20061;-65
2021/04/11 12:18:27;;;;;;;1.00;0.43;;;20.10;38.90;;;;;;4983036;28;20298;-65
2021/04/11 12:21:16;;;;;;;0.40;0.40;;;20.10;39.10;;;;;;4983255;28;20094;-65
2021/04/11 12:23:55;;;;;;;0.98;0.70;;;20.10;38.90;;;;;;4978995;28;20158;-64
2021/04/11 12:26:21;;;;;;;1.08;0.40;;;20.20;39.00;;;;;;4977604;28;20121;-65
2021/04/11 12:28:51;;;;;;;0.95;0.50;;;20.20;39.40;;;;;;4974335;28;20034;-65
2021/04/11 12:31:31;;;;;;;0.80;0.50;;;20.20;39.30;;;;;;4977634;28;20042;-65
2021/04/11 12:34:14;;;;;;;1.15;0.70;;;20.30;39.00;;;;;;4974776;28;20767;-64
2021/04/11 12:36:53;;;;;;;0.70;0.70;;;20.30;39.10;;;;;;4973672;28;20030;-65
2021/04/11 12:39:26;;;;;;;1.40;0.98;;;20.40;38.90;;;;;;4998847;28;20189;-65
2021/04/11 12:41:56;;;;;;;1.10;0.68;;;20.50;38.60;;;;;;4979855;28;20165;-65
2021/04/11 12:44:48;;;;;;;1.15;0.80;;;20.50;38.60;;;;;;4979318;28;20564;-65
2021/04/11 12:47:24;;;;;;;0.88;0.40;;;20.50;38.40;;;;;;4982530;28;20033;-64
2021/04/11 12:50:11;;;;;;;1.38;0.40;;;20.60;38.10;;;;;;4982603;28;20047;-65
2021/04/11 12:53:03;;;;;;;2.13;0.50;;;20.60;38.10;;;;;;4981700;28;20058;-65
2021/04/11 12:55:40;;;;;;;1.58;0.50;;;20.70;38.10;;;;;;4980309;28;20458;-64
2021/04/11 12:58:36;;;;;;;1.02;0.60;;;20.70;37.70;;;;;;4982602;28;20266;-64
2021/04/11 13:01:43;;;;;;;1.65;0.75;;;20.80;37.80;;;;;;4981671;28;20039;-64
2021/04/11 13:04:18;;;;;;;0.77;0.50;;;20.80;37.10;;;;;;4982218;28;20050;-65
2021/04/11 13:06:54;;;;;;;0.98;0.50;;;20.90;37.70;;;;;;4995511;28;20034;-64
2021/04/11 13:09:30;;;;;;;1.13;0.90;;;20.90;37.20;;;;;;4981171;28;20503;-64
2021/04/11 13:12:23;;;;;;;2.13;2.03;;;20.90;36.70;;;;;;4980981;28;20411;-65
2021/04/11 13:14:57;;;;;;;2.70;0.60;;;20.90;36.90;;;;;;4981943;28;20051;-64
2021/04/11 13:17:40;;;;;;;1.50;0.32;;;20.90;36.50;;;;;;4979603;28;20042;-64
2021/04/11 13:20:31;;;;;;;0.75;0.35;;;20.90;36.40;;;;;;4982434;28;20050;-65
2021/04/11 13:23:20;;;;;;;1.45;0.30;;;20.90;36.40;;;;;;5001885;28;20042;-65
2021/04/11 13:26:02;;;;;;;0.32;0.20;;;20.90;36.40;;;;;;4982185;28;20041;-64
2021/04/11 13:28:35;;;;;;;0.17;0.17;;;20.80;36.20;;;;;;4981659;28;20077;-65
2021/04/11 13:31:17;;;;;;;1.70;0.20;;;20.90;35.80;;;;;;5002554;28;20507;-64
2021/04/11 13:33:54;;;;;;;1.55;0.10;;;20.90;36.00;;;;;;4982660;28;20114;-64
2021/04/11 13:36:44;;;;;;;0.13;0.10;;;20.90;35.70;;;;;;4981766;28;20038;-64
2021/04/11 13:39:33;;;;;;;0.95;0.20;;;20.90;35.70;;;;;;4979502;28;20113;-64
2021/04/11 13:42:30;;;;;;;0.35;0.20;;;20.90;35.30;;;;;;4982618;28;20042;-64
2021/04/11 13:45:23;;;;;;;1.10;0.20;;;21.00;35.40;;;;;;4979880;28;20073;-64
2021/04/11 13:47:56;;;;;;;0.38;0.10;;;21.00;35.20;;;;;;4982512;28;20112;-64
2021/04/11 13:50:59;;;;;;;0.17;0.10;;;21.00;35.60;;;;;;4986552;28;20119;-65
2021/04/11 13:53:43;;;;;;;0.20;0.20;;;21.10;34.60;;;;;;4980675;28;20156;-64
2021/04/11 13:56:18;;;;;;;0.28;0.20;;;21.10;35.10;;;;;;4981606;28;20038;-64
2021/04/11 13:58:59;;;;;;;0.10;0.10;;;21.10;34.60;;;;;;4980716;28;20041;-64